Time;durP1;ratioP1;P1;durP2;ratioP2;P2;SDS_P1;SDS_P2;PMS_P1;PMS_P2;Temp;Humidity;BMP_temperature;BMP_pressure;BME280_temperature;BME280_humidity;BME280_pressure;Samples;Min_cycle;Max_cycle;Signal;HPM_P1;HPM_P2
2023/03/16 00:02:00;;;;;;;8.90;4.60;;;;;;;;;;4954987;28;25079;-79
2023/03/16 00:04:26;;;;;;;9.68;4.28;;;;;;;;;;4948882;28;25075;-80
2023/03/16 00:06:54;;;;;;;7.78;4.43;;;;;;;;;;4942456;28;25097;-81
2023/03/16 00:09:20;;;;;;;8.35;4.03;;;;;;;;;;4950036;28;25050;-80
2023/03/16 00:11:45;;;;;;;8.35;4.28;;;;;;;;;;4947756;28;25120;-79
2023/03/16 00:14:11;;;;;;;11.15;4.47;;;;;;;;;;4954748;28;25086;-81
2023/03/16 00:16:37;;;;;;;6.55;3.83;;;;;;;;;;4949505;28;25047;-79
2023/03/16 00:19:04;;;;;;;12.18;4.90;;;;;;;;;;4954837;28;25154;-80
2023/03/16 00:21:31;;;;;;;8.02;4.40;;;;;;;;;;4955398;28;25053;-81
2023/03/16 00:23:57;;;;;;;9.93;4.13;;;;;;;;;;4958533;28;25047;-80
2023/03/16 00:26:24;;;;;;;8.82;3.95;;;;;;;;;;4947646;28;25109;-80
2023/03/16 00:28:53;;;;;;;8.45;4.10;;;;;;;;;;4970133;28;25100;-79
2023/03/16 00:31:19;;;;;;;7.65;4.57;;;;;;;;;;4955691;28;25056;-78
2023/03/16 00:33:45;;;;;;;6.20;3.83;;;;;;;;;;4958090;28;25056;-78
2023/03/16 00:36:11;;;;;;;6.65;4.20;;;;;;;;;;4965814;28;25126;-81
2023/03/16 00:38:38;;;;;;;7.38;4.35;;;;;;;;;;4974768;28;25105;-80
2023/03/16 00:41:05;;;;;;;11.95;4.13;;;;;;;;;;4964188;28;25076;-80
2023/03/16 00:43:39;;;;;;;9.65;4.47;;;;;;;;;;4967580;28;25088;-79
2023/03/16 00:46:05;;;;;;;10.23;4.45;;;;;;;;;;4953945;28;25066;-80
2023/03/16 00:48:33;;;;;;;12.98;4.38;;;;;;;;;;4943785;28;25068;-79
2023/03/16 00:51:00;;;;;;;6.15;4.55;;;;;;;;;;4967795;28;25067;-79
2023/03/16 00:53:26;;;;;;;8.65;4.95;;;;;;;;;;4946457;28;25077;-79
2023/03/16 00:55:52;;;;;;;12.32;4.53;;;;;;;;;;4947886;28;25064;-81
2023/03/16 00:58:18;;;;;;;11.70;4.43;;;;;;;;;;4945355;28;25064;-80
2023/03/16 01:00:45;;;;;;;7.55;4.65;;;;;;;;;;4954688;28;25056;-81
2023/03/16 01:03:11;;;;;;;7.20;4.57;;;;;;;;;;4958923;28;25090;-80
2023/03/16 01:05:41;;;;;;;7.97;4.10;;;;;;;;;;4947618;28;25064;-80
2023/03/16 01:08:07;;;;;;;6.78;4.20;;;;;;;;;;4951099;28;25054;-80
2023/03/16 01:10:34;;;;;;;8.95;4.38;;;;;;;;;;4955441;28;25067;-81
2023/03/16 01:13:01;;;;;;;10.82;4.55;;;;;;;;;;4954146;28;25070;-82
2023/03/16 01:15:27;;;;;;;9.40;4.53;;;;;;;;;;4949089;28;25096;-79
2023/03/16 01:17:53;;;;;;;7.90;4.63;;;;;;;;;;4964685;28;25063;-79
2023/03/16 01:20:19;;;;;;;12.40;4.68;;;;;;;;;;4961909;28;25153;-79
2023/03/16 01:22:45;;;;;;;9.07;4.63;;;;;;;;;;4946778;28;25024;-80
2023/03/16 01:25:12;;;;;;;12.27;4.20;;;;;;;;;;4957312;28;25071;-80
2023/03/16 01:27:38;;;;;;;10.73;5.22;;;;;;;;;;4975055;28;25066;-78
2023/03/16 01:30:05;;;;;;;7.47;4.53;;;;;;;;;;4972397;28;25116;-78
2023/03/16 01:32:31;;;;;;;6.60;4.30;;;;;;;;;;4964273;28;25080;-78
2023/03/16 01:34:57;;;;;;;8.35;4.65;;;;;;;;;;4958178;28;25084;-79
2023/03/16 01:37:23;;;;;;;8.77;4.78;;;;;;;;;;4963647;28;25071;-80
2023/03/16 01:39:49;;;;;;;9.38;3.88;;;;;;;;;;4956604;28;25073;-81
2023/03/16 01:42:15;;;;;;;8.90;4.78;;;;;;;;;;4958878;28;25085;-80
2023/03/16 01:44:50;;;;;;;10.63;4.43;;;;;;;;;;4957576;28;25083;-79
2023/03/16 01:47:17;;;;;;;9.93;4.05;;;;;;;;;;4952284;28;25079;-80
2023/03/16 01:49:46;;;;;;;6.57;3.88;;;;;;;;;;4954004;28;25071;-80
2023/03/16 01:52:16;;;;;;;10.95;4.78;;;;;;;;;;4957863;28;25101;-80
2023/03/16 01:55:02;;;;;;;10.63;4.38;;;;;;;;;;4950714;28;25090;-80
2023/03/16 01:57:32;;;;;;;8.07;3.92;;;;;;;;;;4957589;28;25066;-81
2023/03/16 02:00:09;;;;;;;7.63;4.43;;;;;;;;;;4958082;28;25059;-80
2023/03/16 02:02:36;;;;;;;7.32;4.43;;;;;;;;;;4955284;28;25085;-79
2023/03/16 02:05:24;;;;;;;8.32;4.15;;;;;;;;;;4947259;28;25072;-79
2023/03/16 02:07:57;;;;;;;7.38;4.43;;;;;;;;;;4954311;28;25073;-78
2023/03/16 02:10:23;;;;;;;11.48;4.50;;;;;;;;;;4950614;28;25177;-77
2023/03/16 02:12:50;;;;;;;7.30;4.30;;;;;;;;;;4949553;28;25078;-78
2023/03/16 02:15:16;;;;;;;10.48;4.10;;;;;;;;;;4947886;28;25084;-78
2023/03/16 02:17:43;;;;;;;6.68;3.90;;;;;;;;;;4949844;28;25093;-78
2023/03/16 02:20:24;;;;;;;8.75;4.45;;;;;;;;;;4955860;28;25129;-80
2023/03/16 02:22:53;;;;;;;6.07;3.90;;;;;;;;;;4948018;28;25154;-78
2023/03/16 02:25:20;;;;;;;7.63;5.35;;;;;;;;;;4947665;28;25074;-77
2023/03/16 02:27:55;;;;;;;14.88;3.95;;;;;;;;;;4953302;28;25063;-79
2023/03/16 02:30:21;;;;;;;7.45;4.28;;;;;;;;;;4953386;28;25077;-77
2023/03/16 02:32:50;;;;;;;10.48;4.30;;;;;;;;;;4947474;28;25072;-78
2023/03/16 02:35:16;;;;;;;5.10;3.42;;;;;;;;;;4949021;28;25119;-79
2023/03/16 02:37:42;;;;;;;8.73;3.90;;;;;;;;;;4953190;28;25093;-79
2023/03/16 02:40:23;;;;;;;5.40;3.88;;;;;;;;;;4957764;28;25140;-77
2023/03/16 02:43:03;;;;;;;11.02;3.78;;;;;;;;;;4953583;28;25111;-80
2023/03/16 02:45:43;;;;;;;5.15;3.22;;;;;;;;;;4957905;28;25146;-77
2023/03/16 02:48:13;;;;;;;9.25;4.65;;;;;;;;;;4952725;28;25106;-78
2023/03/16 02:50:58;;;;;;;7.20;3.85;;;;;;;;;;4976260;28;25041;-75
2023/03/16 02:53:24;;;;;;;11.13;4.55;;;;;;;;;;4943954;28;25064;-79
2023/03/16 02:55:50;;;;;;;8.13;4.13;;;;;;;;;;4948824;28;25072;-78
2023/03/16 02:58:16;;;;;;;8.20;3.72;;;;;;;;;;4946578;28;25090;-77
2023/03/16 03:00:44;;;;;;;4.97;3.40;;;;;;;;;;4958966;28;25075;-77
2023/03/16 03:03:10;;;;;;;11.75;4.10;;;;;;;;;;4959218;28;25080;-79
2023/03/16 03:05:36;;;;;;;10.43;3.38;;;;;;;;;;4961814;28;25135;-79
2023/03/16 03:08:02;;;;;;;6.10;3.47;;;;;;;;;;4958861;28;25057;-78
2023/03/16 03:10:28;;;;;;;7.88;3.72;;;;;;;;;;4950552;28;25084;-78
2023/03/16 03:12:54;;;;;;;10.38;4.03;;;;;;;;;;4952670;28;25091;-78
2023/03/16 03:15:20;;;;;;;6.78;3.28;;;;;;;;;;4948386;28;25054;-78
2023/03/16 03:17:46;;;;;;;9.73;4.10;;;;;;;;;;4956727;28;25069;-77
2023/03/16 03:20:15;;;;;;;7.45;3.80;;;;;;;;;;4947199;28;25131;-79
2023/03/16 03:22:43;;;;;;;8.55;3.45;;;;;;;;;;4958212;28;24806;-78
2023/03/16 03:25:09;;;;;;;6.15;3.20;;;;;;;;;;4951435;28;25071;-78
2023/03/16 03:27:35;;;;;;;7.20;4.05;;;;;;;;;;4948811;28;25110;-80
2023/03/16 03:30:01;;;;;;;7.47;3.50;;;;;;;;;;4965502;28;25072;-79
2023/03/16 03:32:27;;;;;;;8.00;3.60;;;;;;;;;;4965741;28;25077;-79
2023/03/16 03:34:53;;;;;;;6.43;3.28;;;;;;;;;;4961581;28;25067;-79
2023/03/16 03:37:19;;;;;;;10.70;4.18;;;;;;;;;;4960227;28;25069;-78
2023/03/16 03:39:47;;;;;;;5.72;3.50;;;;;;;;;;4949711;28;25083;-79
2023/03/16 03:42:13;;;;;;;8.80;3.80;;;;;;;;;;4949513;28;25095;-78
2023/03/16 03:44:39;;;;;;;9.88;3.85;;;;;;;;;;4957285;28;25059;-78
2023/03/16 03:47:05;;;;;;;6.30;3.70;;;;;;;;;;4956520;28;25074;-77
2023/03/16 03:49:31;;;;;;;12.20;3.33;;;;;;;;;;4972493;28;25064;-78
2023/03/16 03:51:58;;;;;;;7.57;2.97;;;;;;;;;;4989649;28;25084;-79
2023/03/16 03:54:24;;;;;;;6.50;2.97;;;;;;;;;;4960533;28;25061;-77
2023/03/16 03:56:51;;;;;;;8.07;4.30;;;;;;;;;;4947928;28;25090;-78
2023/03/16 03:59:17;;;;;;;10.38;3.88;;;;;;;;;;4958388;28;25064;-78
2023/03/16 04:01:43;;;;;;;3.47;2.58;;;;;;;;;;4957903;28;25069;-77
2023/03/16 04:04:09;;;;;;;5.57;3.85;;;;;;;;;;4987339;28;25105;-79
2023/03/16 04:06:35;;;;;;;7.60;3.38;;;;;;;;;;4950603;28;25058;-77
2023/03/16 04:09:01;;;;;;;6.43;3.08;;;;;;;;;;4942631;28;25076;-79
2023/03/16 04:11:27;;;;;;;8.80;3.33;;;;;;;;;;4956992;28;25085;-78
2023/03/16 04:13:52;;;;;;;8.48;3.08;;;;;;;;;;4948478;28;25168;-76
2023/03/16 04:16:19;;;;;;;6.93;3.50;;;;;;;;;;4958183;28;25077;-80
2023/03/16 04:18:45;;;;;;;7.38;2.95;;;;;;;;;;4977804;28;25099;-77
2023/03/16 04:21:15;;;;;;;9.60;3.22;;;;;;;;;;4970050;28;25088;-79
2023/03/16 04:23:42;;;;;;;6.93;3.00;;;;;;;;;;4965834;28;25066;-76
2023/03/16 04:26:08;;;;;;;8.80;3.33;;;;;;;;;;4974600;28;25065;-79
2023/03/16 04:28:33;;;;;;;9.55;3.85;;;;;;;;;;4962145;28;25049;-76
2023/03/16 04:31:05;;;;;;;9.45;3.60;;;;;;;;;;4974171;28;25047;-79
2023/03/16 04:33:32;;;;;;;9.00;3.42;;;;;;;;;;4973996;28;25056;-78
2023/03/16 04:35:58;;;;;;;7.70;3.20;;;;;;;;;;4973909;28;25065;-78
2023/03/16 04:38:24;;;;;;;5.78;2.97;;;;;;;;;;4962106;28;25111;-79
2023/03/16 04:40:50;;;;;;;10.70;4.60;;;;;;;;;;4971927;28;25078;-78
2023/03/16 04:43:16;;;;;;;6.93;3.30;;;;;;;;;;4963799;28;25070;-75
2023/03/16 04:45:42;;;;;;;6.47;3.17;;;;;;;;;;4963207;28;25101;-80
2023/03/16 04:48:09;;;;;;;13.18;3.40;;;;;;;;;;4966252;28;25105;-82
2023/03/16 04:50:35;;;;;;;7.13;3.28;;;;;;;;;;4968485;28;25051;-78
2023/03/16 04:53:01;;;;;;;5.55;3.13;;;;;;;;;;4958652;28;25072;-79
2023/03/16 04:55:27;;;;;;;6.53;3.03;;;;;;;;;;4957935;28;25090;-79
2023/03/16 04:57:53;;;;;;;7.00;3.53;;;;;;;;;;4956846;28;25067;-78
2023/03/16 05:00:19;;;;;;;6.15;2.97;;;;;;;;;;4957402;28;25078;-78
2023/03/16 05:02:46;;;;;;;7.10;3.20;;;;;;;;;;4954760;28;25066;-78
2023/03/16 05:05:12;;;;;;;5.60;3.60;;;;;;;;;;4946676;28;25068;-81
2023/03/16 05:07:40;;;;;;;11.75;3.88;;;;;;;;;;4957731;28;25183;-76
2023/03/16 05:10:06;;;;;;;7.93;3.63;;;;;;;;;;4978454;28;25089;-79
2023/03/16 05:12:32;;;;;;;10.05;3.63;;;;;;;;;;4965783;28;25075;-77
2023/03/16 05:14:58;;;;;;;9.68;3.25;;;;;;;;;;4970523;28;25176;-79
2023/03/16 05:17:24;;;;;;;6.25;3.25;;;;;;;;;;4954826;28;25067;-79
2023/03/16 05:19:50;;;;;;;6.93;3.10;;;;;;;;;;4947613;28;25094;-78
2023/03/16 05:22:16;;;;;;;11.93;3.70;;;;;;;;;;4947125;28;25178;-77
2023/03/16 05:24:42;;;;;;;6.05;3.22;;;;;;;;;;4959900;28;25086;-79
2023/03/16 05:27:08;;;;;;;6.82;3.30;;;;;;;;;;4957885;28;25074;-73
2023/03/16 05:29:34;;;;;;;7.55;3.55;;;;;;;;;;4949797;28;25076;-77
2023/03/16 05:32:00;;;;;;;10.65;3.50;;;;;;;;;;4958308;28;25071;-79
2023/03/16 05:34:26;;;;;;;10.07;3.38;;;;;;;;;;4948065;28;25063;-77
2023/03/16 05:36:52;;;;;;;9.30;3.78;;;;;;;;;;4954407;28;25162;-78
2023/03/16 05:39:18;;;;;;;6.50;2.80;;;;;;;;;;4953459;28;25075;-76
2023/03/16 05:41:44;;;;;;;6.50;3.22;;;;;;;;;;4962019;28;25075;-77
2023/03/16 05:44:10;;;;;;;6.45;3.28;;;;;;;;;;4955914;28;25066;-77
2023/03/16 05:46:36;;;;;;;8.18;3.50;;;;;;;;;;4942802;28;25094;-79
2023/03/16 05:49:03;;;;;;;8.57;3.05;;;;;;;;;;4948552;28;25103;-78
2023/03/16 05:51:29;;;;;;;4.55;2.97;;;;;;;;;;4956806;28;25108;-79
2023/03/16 05:53:55;;;;;;;8.18;3.17;;;;;;;;;;4953798;28;25062;-76
2023/03/16 05:56:23;;;;;;;8.77;3.20;;;;;;;;;;4949707;28;25066;-76
2023/03/16 05:58:49;;;;;;;5.15;3.30;;;;;;;;;;4949498;28;25048;-78
2023/03/16 06:01:15;;;;;;;4.55;2.88;;;;;;;;;;4954530;28;25096;-77
2023/03/16 06:03:41;;;;;;;8.90;3.45;;;;;;;;;;4943921;28;25097;-79
2023/03/16 06:06:07;;;;;;;6.32;3.28;;;;;;;;;;4955614;28;25083;-77
2023/03/16 06:08:33;;;;;;;5.47;2.70;;;;;;;;;;4953115;28;25166;-78
2023/03/16 06:10:59;;;;;;;4.10;3.15;;;;;;;;;;4951744;28;25099;-77
2023/03/16 06:13:25;;;;;;;5.35;2.85;;;;;;;;;;4954524;28;25079;-75
2023/03/16 06:15:51;;;;;;;4.32;2.95;;;;;;;;;;4960569;28;25077;-76
2023/03/16 06:18:17;;;;;;;10.40;3.58;;;;;;;;;;4954055;28;25060;-77
2023/03/16 06:20:43;;;;;;;8.02;3.65;;;;;;;;;;4955709;28;25083;-79
2023/03/16 06:23:09;;;;;;;5.97;2.83;;;;;;;;;;4952901;28;25055;-78
2023/03/16 06:25:35;;;;;;;7.60;2.63;;;;;;;;;;4950146;28;25080;-77
2023/03/16 06:28:01;;;;;;;9.07;3.83;;;;;;;;;;4947443;28;25168;-77
2023/03/16 06:30:27;;;;;;;6.95;3.30;;;;;;;;;;4954660;28;25078;-75
2023/03/16 06:32:53;;;;;;;11.65;3.15;;;;;;;;;;4944671;28;25051;-76
2023/03/16 06:35:19;;;;;;;6.30;3.00;;;;;;;;;;4946279;28;25075;-76
2023/03/16 06:37:45;;;;;;;6.57;3.20;;;;;;;;;;4952228;28;25101;-77
2023/03/16 06:40:12;;;;;;;8.10;3.47;;;;;;;;;;4941201;28;25154;-76
2023/03/16 06:42:38;;;;;;;21.58;5.68;;;;;;;;;;4942380;28;25070;-77
2023/03/16 06:45:04;;;;;;;8.38;3.05;;;;;;;;;;4946007;28;25061;-75
2023/03/16 06:47:31;;;;;;;12.68;3.10;;;;;;;;;;4955831;28;25062;-78
2023/03/16 06:49:57;;;;;;;8.40;3.30;;;;;;;;;;4954209;28;25131;-78
2023/03/16 06:52:23;;;;;;;8.57;3.30;;;;;;;;;;4950337;28;25065;-76
2023/03/16 06:54:49;;;;;;;6.80;3.10;;;;;;;;;;4945195;28;25099;-77
2023/03/16 06:57:15;;;;;;;9.02;3.25;;;;;;;;;;4955685;28;25070;-77
2023/03/16 06:59:41;;;;;;;3.88;2.47;;;;;;;;;;4968327;28;25073;-76
2023/03/16 07:02:10;;;;;;;5.40;2.90;;;;;;;;;;4965825;28;25049;-80
2023/03/16 07:04:36;;;;;;;10.35;3.47;;;;;;;;;;4959227;28;25060;-75
2023/03/16 07:07:02;;;;;;;7.60;2.92;;;;;;;;;;4946276;28;25153;-76
2023/03/16 07:09:28;;;;;;;4.82;2.80;;;;;;;;;;4953499;28;25085;-77
2023/03/16 07:11:54;;;;;;;8.52;3.00;;;;;;;;;;4949282;28;25108;-77
2023/03/16 07:14:22;;;;;;;5.50;2.65;;;;;;;;;;4955002;28;25090;-77
2023/03/16 07:16:48;;;;;;;7.78;2.80;;;;;;;;;;4951063;28;25068;-79
2023/03/16 07:19:14;;;;;;;5.63;2.53;;;;;;;;;;4950580;28;25078;-79
2023/03/16 07:21:40;;;;;;;8.38;3.00;;;;;;;;;;4949286;28;25064;-76
2023/03/16 07:24:07;;;;;;;9.07;4.15;;;;;;;;;;4954280;28;25156;-78
2023/03/16 07:26:34;;;;;;;7.45;2.83;;;;;;;;;;4942318;28;25081;-77
2023/03/16 07:29:00;;;;;;;9.05;2.45;;;;;;;;;;4939672;28;25073;-76
2023/03/16 07:31:26;;;;;;;7.88;2.92;;;;;;;;;;4948748;28;25058;-76
2023/03/16 07:33:52;;;;;;;4.00;2.10;;;;;;;;;;4945264;28;25071;-75
2023/03/16 07:36:18;;;;;;;6.45;3.28;;;;;;;;;;4948316;28;25070;-78
2023/03/16 07:38:44;;;;;;;3.75;2.20;;;;;;;;;;4956302;28;25078;-76
2023/03/16 07:41:10;;;;;;;4.32;3.00;;;;;;;;;;4955803;28;25070;-75
2023/03/16 07:43:36;;;;;;;6.50;2.53;;;;;;;;;;4952183;28;25092;-76
2023/03/16 07:46:03;;;;;;;3.80;2.22;;;;;;;;;;4952028;28;25065;-76
2023/03/16 07:48:28;;;;;;;6.70;3.08;;;;;;;;;;4961459;28;25108;-77
2023/03/16 07:50:54;;;;;;;7.38;2.53;;;;;;;;;;4946796;28;25056;-78
2023/03/16 07:53:21;;;;;;;8.95;2.90;;;;;;;;;;4954257;28;25089;-76
2023/03/16 07:55:47;;;;;;;4.35;2.42;;;;;;;;;;4950417;28;25092;-76
2023/03/16 07:58:13;;;;;;;4.25;2.50;;;;;;;;;;4945065;28;25143;-75
2023/03/16 08:00:41;;;;;;;7.85;2.30;;;;;;;;;;4954107;28;25071;-75
2023/03/16 08:03:10;;;;;;;4.20;2.33;;;;;;;;;;4953659;28;25104;-77
2023/03/16 08:05:36;;;;;;;5.35;2.47;;;;;;;;;;4946557;28;25148;-74
2023/03/16 08:08:02;;;;;;;7.50;2.60;;;;;;;;;;4955929;28;25087;-76
2023/03/16 08:10:28;;;;;;;5.32;2.70;;;;;;;;;;4952319;28;25532;-74
2023/03/16 08:12:54;;;;;;;6.00;2.17;;;;;;;;;;4954091;28;25172;-77
2023/03/16 08:15:20;;;;;;;4.45;2.28;;;;;;;;;;4962257;28;25110;-76
2023/03/16 08:17:46;;;;;;;5.72;2.28;;;;;;;;;;4951706;28;25090;-76
2023/03/16 08:20:14;;;;;;;3.38;2.03;;;;;;;;;;4945032;28;25062;-76
2023/03/16 08:22:41;;;;;;;6.20;2.03;;;;;;;;;;4948697;28;25107;-75
2023/03/16 08:25:09;;;;;;;4.82;2.25;;;;;;;;;;4961698;28;25104;-75
2023/03/16 08:27:36;;;;;;;4.78;2.00;;;;;;;;;;4956004;28;25050;-75
2023/03/16 08:30:04;;;;;;;3.08;1.95;;;;;;;;;;4949768;28;25079;-75
2023/03/16 08:32:31;;;;;;;5.32;2.03;;;;;;;;;;4941672;28;25082;-76
2023/03/16 08:34:59;;;;;;;7.43;2.33;;;;;;;;;;4948200;28;25078;-77
2023/03/16 08:37:26;;;;;;;5.13;2.60;;;;;;;;;;4944413;28;25062;-76
2023/03/16 08:39:53;;;;;;;3.17;2.15;;;;;;;;;;4946143;28;25071;-75
2023/03/16 08:42:19;;;;;;;7.43;1.80;;;;;;;;;;4952482;28;25154;-75
2023/03/16 08:44:46;;;;;;;5.47;2.00;;;;;;;;;;4950982;28;25153;-75
2023/03/16 08:47:13;;;;;;;6.20;1.75;;;;;;;;;;4950947;28;25065;-76
2023/03/16 08:49:40;;;;;;;10.10;3.08;;;;;;;;;;4953372;28;25142;-76
2023/03/16 08:52:09;;;;;;;3.33;2.15;;;;;;;;;;4949892;28;25073;-74
2023/03/16 08:54:35;;;;;;;7.75;1.95;;;;;;;;;;4949433;28;25073;-75
2023/03/16 08:57:01;;;;;;;8.52;2.05;;;;;;;;;;4948509;28;25082;-75
2023/03/16 08:59:28;;;;;;;4.88;2.08;;;;;;;;;;4949787;28;25091;-76
2023/03/16 09:01:54;;;;;;;6.57;2.10;;;;;;;;;;4944084;28;25101;-77
2023/03/16 09:04:20;;;;;;;6.47;1.65;;;;;;;;;;4955192;28;25149;-77
2023/03/16 09:06:46;;;;;;;5.85;2.10;;;;;;;;;;4957511;28;25121;-74
2023/03/16 09:09:12;;;;;;;4.53;1.60;;;;;;;;;;4946395;28;25076;-74
2023/03/16 09:11:39;;;;;;;3.40;1.65;;;;;;;;;;4952909;28;25065;-74
2023/03/16 09:14:05;;;;;;;7.70;1.90;;;;;;;;;;4940053;28;25050;-73
2023/03/16 09:16:31;;;;;;;5.47;1.80;;;;;;;;;;4944920;28;25096;-75
2023/03/16 09:18:58;;;;;;;4.13;2.08;;;;;;;;;;4948613;28;25086;-75
2023/03/16 09:21:24;;;;;;;3.75;1.60;;;;;;;;;;4948560;28;25063;-77
2023/03/16 09:23:50;;;;;;;2.88;1.35;;;;;;;;;;4940888;28;25051;-75
2023/03/16 09:26:16;;;;;;;4.88;1.73;;;;;;;;;;4947055;28;25123;-74
2023/03/16 09:28:42;;;;;;;4.55;1.50;;;;;;;;;;4950709;28;25098;-76
2023/03/16 09:31:15;;;;;;;2.40;1.50;;;;;;;;;;4943703;28;25107;-73
2023/03/16 09:33:41;;;;;;;7.15;1.60;;;;;;;;;;4948051;28;25058;-75
2023/03/16 09:36:10;;;;;;;4.82;1.60;;;;;;;;;;4957411;28;25131;-74
2023/03/16 09:38:37;;;;;;;5.38;1.45;;;;;;;;;;4956600;28;25086;-74
2023/03/16 09:41:10;;;;;;;5.20;1.92;;;;;;;;;;4948653;28;25095;-77
2023/03/16 09:43:48;;;;;;;4.55;1.50;;;;;;;;;;4952355;28;25146;-74
2023/03/16 09:46:20;;;;;;;8.77;1.88;;;;;;;;;;4954640;28;25090;-74
2023/03/16 09:48:46;;;;;;;;;;;;;;;;;;4954794;28;25095;-73
2023/03/16 09:51:17;;;;;;;2.95;0.95;;;;;;;;;;4950834;28;25110;-76
2023/03/16 09:53:45;;;;;;;4.32;1.50;;;;;;;;;;4945886;28;25173;-74
2023/03/16 09:56:19;;;;;;;3.05;1.30;;;;;;;;;;4954615;28;25163;-74
2023/03/16 09:58:45;;;;;;;2.92;1.30;;;;;;;;;;4943738;28;25161;-73
2023/03/16 10:01:12;;;;;;;5.82;1.67;;;;;;;;;;4946631;28;25098;-74
2023/03/16 10:03:57;;;;;;;2.53;1.33;;;;;;;;;;4946961;28;25155;-76
2023/03/16 10:06:25;;;;;;;4.10;1.60;;;;;;;;;;4943134;28;25056;-71
2023/03/16 10:08:57;;;;;;;3.72;1.33;;;;;;;;;;4942049;28;25122;-71
2023/03/16 10:11:23;;;;;;;2.87;1.10;;;;;;;;;;4957473;28;25551;-71
2023/03/16 10:13:58;;;;;;;2.33;1.38;;;;;;;;;;4955110;28;25081;-71
2023/03/16 10:16:29;;;;;;;4.00;1.50;;;;;;;;;;4952671;28;25082;-71
2023/03/16 10:19:01;;;;;;;4.63;1.33;;;;;;;;;;4949188;28;25075;-74
2023/03/16 10:21:28;;;;;;;4.95;1.27;;;;;;;;;;4938136;28;25094;-72
2023/03/16 10:23:55;;;;;;;9.52;1.75;;;;;;;;;;4948235;28;25069;-73
2023/03/16 10:26:24;;;;;;;5.65;1.40;;;;;;;;;;4954302;28;25186;-73
2023/03/16 10:28:51;;;;;;;3.15;1.48;;;;;;;;;;4948290;28;25153;-73
2023/03/16 10:31:19;;;;;;;4.13;1.90;;;;;;;;;;4948123;28;25169;-73
2023/03/16 10:33:45;;;;;;;5.82;1.33;;;;;;;;;;4949645;28;25086;-71
2023/03/16 10:36:11;;;;;;;4.63;2.00;;;;;;;;;;4960847;28;25074;-73
2023/03/16 10:38:37;;;;;;;3.50;1.30;;;;;;;;;;4956300;28;25059;-73
2023/03/16 10:41:21;;;;;;;4.57;1.15;;;;;;;;;;4951193;28;25082;-72
2023/03/16 10:44:07;;;;;;;4.07;1.35;;;;;;;;;;4950689;28;25169;-72
2023/03/16 10:46:56;;;;;;;2.13;1.40;;;;;;;;;;4933624;28;25068;-72
2023/03/16 10:49:27;;;;;;;3.63;1.58;;;;;;;;;;4944105;28;25090;-71
2023/03/16 10:51:56;;;;;;;11.05;1.50;;;;;;;;;;4946808;28;25055;-73
2023/03/16 10:54:34;;;;;;;5.88;1.25;;;;;;;;;;4940112;28;25055;-73
2023/03/16 10:57:01;;;;;;;3.78;2.00;;;;;;;;;;4942437;28;25071;-72
2023/03/16 10:59:33;;;;;;;4.95;1.33;;;;;;;;;;4970843;28;25052;-72
2023/03/16 11:02:00;;;;;;;3.27;1.40;;;;;;;;;;4947437;28;25074;-75
2023/03/16 11:04:30;;;;;;;2.03;1.20;;;;;;;;;;4950644;28;25128;-71
2023/03/16 11:06:56;;;;;;;2.78;1.00;;;;;;;;;;4944424;28;25055;-74
2023/03/16 11:09:31;;;;;;;2.85;1.15;;;;;;;;;;4941454;28;25091;-71
2023/03/16 11:11:58;;;;;;;2.33;1.23;;;;;;;;;;4940395;28;25070;-74
2023/03/16 11:14:28;;;;;;;6.53;1.75;;;;;;;;;;4949295;28;25069;-73
2023/03/16 11:17:01;;;;;;;3.97;1.20;;;;;;;;;;4947526;28;25090;-72
2023/03/16 11:19:31;;;;;;;5.13;1.30;;;;;;;;;;4947309;28;25052;-71
2023/03/16 11:22:08;;;;;;;6.32;1.40;;;;;;;;;;4951780;28;25069;-72
2023/03/16 11:24:46;;;;;;;3.22;1.00;;;;;;;;;;4946541;28;25078;-73
2023/03/16 11:27:22;;;;;;;2.35;1.38;;;;;;;;;;4944872;28;25148;-73
2023/03/16 11:29:58;;;;;;;7.18;1.23;;;;;;;;;;4944003;28;25059;-72
2023/03/16 11:32:32;;;;;;;4.70;1.25;;;;;;;;;;4956035;28;25140;-75
2023/03/16 11:34:59;;;;;;;3.05;1.30;;;;;;;;;;4948280;28;25143;-73
2023/03/16 11:37:28;;;;;;;5.30;1.30;;;;;;;;;;4962554;28;25065;-74
2023/03/16 11:40:13;;;;;;;3.20;1.10;;;;;;;;;;4956022;28;25133;-72
2023/03/16 11:42:46;;;;;;;7.05;1.50;;;;;;;;;;4952978;28;25066;-74
2023/03/16 11:45:17;;;;;;;2.28;0.90;;;;;;;;;;4953179;28;25064;-72
2023/03/16 11:48:12;;;;;;;3.72;1.30;;;;;;;;;;4943211;28;25124;-75
2023/03/16 11:50:57;;;;;;;5.68;1.10;;;;;;;;;;4943890;28;25153;-71
2023/03/16 11:53:32;;;;;;;3.38;1.25;;;;;;;;;;4938865;28;25069;-75
2023/03/16 11:55:58;;;;;;;3.10;1.33;;;;;;;;;;4946841;28;25078;-72
2023/03/16 11:58:45;;;;;;;1.23;0.82;;;;;;;;;;4947260;28;25077;-71
2023/03/16 12:01:18;;;;;;;2.10;1.15;;;;;;;;;;4953563;28;25077;-73
2023/03/16 12:03:53;;;;;;;4.47;1.30;;;;;;;;;;4941191;28;25063;-73
2023/03/16 12:06:46;;;;;;;6.53;1.85;;;;;;;;;;4947075;28;25087;-71
2023/03/16 12:09:13;;;;;;;1.98;0.90;;;;;;;;;;4943577;28;25052;-74
2023/03/16 12:11:45;;;;;;;2.97;1.13;;;;;;;;;;4948224;28;25054;-74
2023/03/16 12:14:27;;;;;;;2.15;1.23;;;;;;;;;;4946072;28;25057;-73
2023/03/16 12:17:00;;;;;;;5.82;1.35;;;;;;;;;;4944481;28;25051;-73
2023/03/16 12:19:34;;;;;;;4.18;1.30;;;;;;;;;;4955763;28;25138;-72
2023/03/16 12:22:03;;;;;;;1.63;0.85;;;;;;;;;;4951163;28;25060;-71
2023/03/16 12:24:41;;;;;;;2.42;0.90;;;;;;;;;;4949890;28;25067;-72
2023/03/16 12:27:09;;;;;;;3.08;1.10;;;;;;;;;;4946484;28;25078;-73
2023/03/16 12:29:42;;;;;;;1.27;0.82;;;;;;;;;;4961473;28;25059;-73
2023/03/16 12:32:27;;;;;;;2.40;0.82;;;;;;;;;;4952597;28;25086;-71
2023/03/16 12:35:03;;;;;;;1.50;0.90;;;;;;;;;;4947225;28;25052;-71
2023/03/16 12:37:35;;;;;;;5.82;1.30;;;;;;;;;;4945160;28;25074;-72
2023/03/16 12:40:19;;;;;;;4.90;0.98;;;;;;;;;;4937027;28;25101;-71
2023/03/16 12:43:03;;;;;;;3.60;1.00;;;;;;;;;;4949150;28;25054;-73
2023/03/16 12:45:36;;;;;;;1.98;0.75;;;;;;;;;;4941114;28;25105;-73
2023/03/16 12:48:03;;;;;;;;;;;;;;;;;;4940957;28;25077;-71
2023/03/16 12:50:29;;;;;;;1.30;0.73;;;;;;;;;;4942898;28;25145;-72
2023/03/16 12:52:55;;;;;;;12.15;1.73;;;;;;;;;;4951783;28;25083;-72
2023/03/16 12:55:33;;;;;;;1.75;0.82;;;;;;;;;;4956487;28;25087;-74
2023/03/16 12:58:05;;;;;;;3.13;1.40;;;;;;;;;;4950902;28;25082;-71
2023/03/16 13:00:39;;;;;;;2.97;0.88;;;;;;;;;;4947387;28;25087;-73
2023/03/16 13:03:06;;;;;;;1.30;0.80;;;;;;;;;;4945240;28;25092;-75
2023/03/16 13:05:33;;;;;;;2.05;1.23;;;;;;;;;;4944594;28;25072;-74
2023/03/16 13:08:05;;;;;;;3.42;0.90;;;;;;;;;;4949577;28;25057;-73
2023/03/16 13:10:32;;;;;;;2.22;1.00;;;;;;;;;;4953060;28;25057;-73
2023/03/16 13:13:06;;;;;;;3.67;1.00;;;;;;;;;;4945253;28;25183;-74
2023/03/16 13:15:33;;;;;;;0.85;0.60;;;;;;;;;;4943513;28;25051;-72
2023/03/16 13:18:20;;;;;;;0.93;0.60;;;;;;;;;;4946936;28;25135;-73
2023/03/16 13:20:46;;;;;;;1.25;0.85;;;;;;;;;;4944669;28;25079;-73
2023/03/16 13:23:22;;;;;;;1.38;0.60;;;;;;;;;;4953931;28;25072;-74
2023/03/16 13:26:05;;;;;;;2.28;1.15;;;;;;;;;;4946920;28;25096;-74
2023/03/16 13:28:38;;;;;;;4.45;0.77;;;;;;;;;;4946936;28;25055;-74
2023/03/16 13:31:05;;;;;;;5.68;1.00;;;;;;;;;;4944125;28;25071;-74
2023/03/16 13:33:37;;;;;;;1.63;0.68;;;;;;;;;;4945760;28;25076;-73
2023/03/16 13:36:05;;;;;;;3.35;0.95;;;;;;;;;;4948480;28;25092;-75
2023/03/16 13:38:31;;;;;;;4.07;0.77;;;;;;;;;;4947929;28;25069;-71
2023/03/16 13:41:01;;;;;;;2.80;0.47;;;;;;;;;;4948108;28;25064;-74
2023/03/16 13:43:28;;;;;;;3.70;0.90;;;;;;;;;;4949393;28;25067;-75
2023/03/16 13:45:54;;;;;;;2.40;0.90;;;;;;;;;;4948324;28;25083;-75
2023/03/16 13:48:20;;;;;;;2.88;0.90;;;;;;;;;;4940139;28;25177;-72
2023/03/16 13:50:56;;;;;;;3.90;1.00;;;;;;;;;;4939479;28;25071;-76
2023/03/16 13:53:28;;;;;;;6.30;1.10;;;;;;;;;;4938395;28;25110;-71
2023/03/16 13:55:55;;;;;;;3.17;1.20;;;;;;;;;;4943660;28;25152;-74
2023/03/16 13:58:27;;;;;;;3.75;0.82;;;;;;;;;;4938110;28;25128;-73
2023/03/16 14:00:57;;;;;;;4.38;1.02;;;;;;;;;;4936347;28;25055;-72
2023/03/16 14:03:31;;;;;;;2.20;0.57;;;;;;;;;;4942332;28;25066;-77
2023/03/16 14:05:57;;;;;;;3.50;1.08;;;;;;;;;;4940028;28;25074;-73
2023/03/16 14:08:25;;;;;;;1.35;0.70;;;;;;;;;;4936994;28;25056;-73
2023/03/16 14:10:51;;;;;;;1.40;0.60;;;;;;;;;;4939216;28;25125;-72
2023/03/16 14:13:26;;;;;;;1.13;0.90;;;;;;;;;;4934211;28;25071;-72
2023/03/16 14:15:56;;;;;;;2.05;0.90;;;;;;;;;;4944782;28;25053;-71
2023/03/16 14:18:24;;;;;;;2.03;0.60;;;;;;;;;;4933295;28;25149;-76
2023/03/16 14:20:51;;;;;;;1.10;0.70;;;;;;;;;;4941177;28;25146;-73
2023/03/16 14:23:23;;;;;;;1.67;0.70;;;;;;;;;;4938177;28;25060;-73
2023/03/16 14:25:49;;;;;;;2.78;0.90;;;;;;;;;;4928301;28;25086;-72
2023/03/16 14:28:16;;;;;;;2.17;0.90;;;;;;;;;;4941762;28;25068;-74
2023/03/16 14:31:01;;;;;;;2.55;0.82;;;;;;;;;;4942262;28;25092;-74
2023/03/16 14:33:29;;;;;;;2.15;1.02;;;;;;;;;;4947181;28;25069;-71
2023/03/16 14:35:56;;;;;;;1.85;1.02;;;;;;;;;;4944810;28;25074;-74
2023/03/16 14:38:22;;;;;;;1.75;0.70;;;;;;;;;;4945635;28;25078;-73
2023/03/16 14:40:52;;;;;;;2.58;0.93;;;;;;;;;;4949114;28;25084;-74
2023/03/16 14:43:21;;;;;;;2.38;0.88;;;;;;;;;;4940894;28;25063;-73
2023/03/16 14:45:47;;;;;;;5.05;0.80;;;;;;;;;;4935436;28;25050;-73
2023/03/16 14:48:17;;;;;;;1.50;0.60;;;;;;;;;;4935991;28;25086;-74
2023/03/16 14:50:44;;;;;;;3.08;0.57;;;;;;;;;;4940790;28;25062;-74
2023/03/16 14:53:10;;;;;;;1.77;0.80;;;;;;;;;;4934401;28;25059;-74